sensor_id;sensor_type;location;lat;lon;timestamp;P1;durP1;ratioP1;P2;durP2;ratioP2
78622;SDS011;67943;54.412;9.502;2023-07-29T00:03:10;8.00;;;5.88;;
78622;SDS011;67943;54.412;9.502;2023-07-29T00:08:13;7.97;;;5.25;;
78622;SDS011;67943;54.412;9.502;2023-07-29T00:13:14;8.02;;;5.80;;
78622;SDS011;67943;54.412;9.502;2023-07-29T00:18:15;5.45;;;4.10;;
78622;SDS011;67943;54.412;9.502;2023-07-29T00:23:19;7.20;;;5.03;;
78622;SDS011;67943;54.412;9.502;2023-07-29T00:28:21;7.47;;;5.18;;
78622;SDS011;67943;54.412;9.502;2023-07-29T00:33:23;6.00;;;4.40;;
78622;SDS011;67943;54.412;9.502;2023-07-29T00:38:25;5.18;;;4.05;;
78622;SDS011;67943;54.412;9.502;2023-07-29T00:43:27;5.47;;;4.30;;
78622;SDS011;67943;54.412;9.502;2023-07-29T00:48:28;7.72;;;5.72;;
78622;SDS011;67943;54.412;9.502;2023-07-29T00:53:31;6.25;;;4.68;;
78622;SDS011;67943;54.412;9.502;2023-07-29T00:58:33;7.03;;;5.20;;
78622;SDS011;67943;54.412;9.502;2023-07-29T01:03:35;5.90;;;4.63;;
78622;SDS011;67943;54.412;9.502;2023-07-29T01:08:41;7.03;;;5.03;;
78622;SDS011;67943;54.412;9.502;2023-07-29T01:13:48;6.97;;;5.25;;
78622;SDS011;67943;54.412;9.502;2023-07-29T01:18:54;8.70;;;6.43;;
78622;SDS011;67943;54.412;9.502;2023-07-29T01:23:59;10.20;;;7.18;;
78622;SDS011;67943;54.412;9.502;2023-07-29T01:29:00;11.52;;;7.20;;
78622;SDS011;67943;54.412;9.502;2023-07-29T01:34:04;9.32;;;6.90;;
78622;SDS011;67943;54.412;9.502;2023-07-29T01:39:12;6.50;;;5.05;;
78622;SDS011;67943;54.412;9.502;2023-07-29T01:44:17;8.02;;;5.85;;
78622;SDS011;67943;54.412;9.502;2023-07-29T01:49:19;8.90;;;5.95;;
78622;SDS011;67943;54.412;9.502;2023-07-29T01:54:22;7.72;;;5.25;;
78622;SDS011;67943;54.412;9.502;2023-07-29T01:59:24;9.63;;;6.28;;
78622;SDS011;67943;54.412;9.502;2023-07-29T02:04:25;8.30;;;5.43;;
78622;SDS011;67943;54.412;9.502;2023-07-29T02:09:28;7.15;;;5.30;;
78622;SDS011;67943;54.412;9.502;2023-07-29T02:14:31;10.23;;;6.57;;
78622;SDS011;67943;54.412;9.502;2023-07-29T02:19:32;9.35;;;6.22;;
78622;SDS011;67943;54.412;9.502;2023-07-29T02:24:35;8.75;;;5.57;;
78622;SDS011;67943;54.412;9.502;2023-07-29T02:29:36;6.88;;;4.85;;
78622;SDS011;67943;54.412;9.502;2023-07-29T02:34:38;7.30;;;5.35;;
78622;SDS011;67943;54.412;9.502;2023-07-29T02:39:41;9.30;;;6.13;;
78622;SDS011;67943;54.412;9.502;2023-07-29T02:44:43;8.05;;;5.25;;
78622;SDS011;67943;54.412;9.502;2023-07-29T02:49:44;7.68;;;5.40;;
78622;SDS011;67943;54.412;9.502;2023-07-29T02:54:47;9.00;;;5.45;;
78622;SDS011;67943;54.412;9.502;2023-07-29T02:59:48;8.07;;;5.50;;
78622;SDS011;67943;54.412;9.502;2023-07-29T03:04:50;8.65;;;5.40;;
78622;SDS011;67943;54.412;9.502;2023-07-29T03:09:53;10.85;;;6.45;;
78622;SDS011;67943;54.412;9.502;2023-07-29T03:14:54;7.32;;;5.40;;
78622;SDS011;67943;54.412;9.502;2023-07-29T03:19:56;8.10;;;4.88;;
78622;SDS011;67943;54.412;9.502;2023-07-29T03:24:59;9.50;;;5.78;;
78622;SDS011;67943;54.412;9.502;2023-07-29T03:30:00;8.35;;;5.63;;
78622;SDS011;67943;54.412;9.502;2023-07-29T03:35:02;9.07;;;5.60;;
78622;SDS011;67943;54.412;9.502;2023-07-29T03:40:06;10.88;;;6.68;;
78622;SDS011;67943;54.412;9.502;2023-07-29T03:45:09;10.10;;;7.20;;
78622;SDS011;67943;54.412;9.502;2023-07-29T03:50:11;11.25;;;7.38;;
78622;SDS011;67943;54.412;9.502;2023-07-29T03:55:13;12.27;;;7.43;;
78622;SDS011;67943;54.412;9.502;2023-07-29T04:00:15;11.38;;;7.60;;
78622;SDS011;67943;54.412;9.502;2023-07-29T04:05:17;14.18;;;8.75;;
78622;SDS011;67943;54.412;9.502;2023-07-29T04:10:20;14.32;;;8.57;;
78622;SDS011;67943;54.412;9.502;2023-07-29T04:15:21;14.40;;;8.90;;
78622;SDS011;67943;54.412;9.502;2023-07-29T04:20:23;14.07;;;9.00;;
78622;SDS011;67943;54.412;9.502;2023-07-29T04:25:26;19.00;;;10.50;;
78622;SDS011;67943;54.412;9.502;2023-07-29T04:30:27;17.02;;;10.38;;
78622;SDS011;67943;54.412;9.502;2023-07-29T04:35:29;16.27;;;9.57;;
78622;SDS011;67943;54.412;9.502;2023-07-29T04:40:33;20.20;;;11.35;;
78622;SDS011;67943;54.412;9.502;2023-07-29T04:45:35;16.55;;;9.95;;
78622;SDS011;67943;54.412;9.502;2023-07-29T04:50:36;14.70;;;9.10;;
78622;SDS011;67943;54.412;9.502;2023-07-29T04:55:39;16.38;;;10.18;;
78622;SDS011;67943;54.412;9.502;2023-07-29T05:00:42;13.32;;;8.43;;
78622;SDS011;67943;54.412;9.502;2023-07-29T05:05:44;13.73;;;8.90;;
78622;SDS011;67943;54.412;9.502;2023-07-29T05:10:49;14.07;;;8.15;;
78622;SDS011;67943;54.412;9.502;2023-07-29T05:15:51;13.68;;;8.43;;
78622;SDS011;67943;54.412;9.502;2023-07-29T05:20:52;13.18;;;8.23;;
78622;SDS011;67943;54.412;9.502;2023-07-29T05:25:55;16.23;;;9.68;;
78622;SDS011;67943;54.412;9.502;2023-07-29T05:30:56;17.67;;;9.90;;
78622;SDS011;67943;54.412;9.502;2023-07-29T05:36:01;19.95;;;10.40;;
78622;SDS011;67943;54.412;9.502;2023-07-29T05:41:04;17.75;;;9.88;;
78622;SDS011;67943;54.412;9.502;2023-07-29T05:46:06;17.85;;;9.80;;
78622;SDS011;67943;54.412;9.502;2023-07-29T05:51:07;15.23;;;9.40;;
78622;SDS011;67943;54.412;9.502;2023-07-29T05:56:10;16.70;;;9.75;;
78622;SDS011;67943;54.412;9.502;2023-07-29T06:01:12;16.92;;;9.27;;
78622;SDS011;67943;54.412;9.502;2023-07-29T06:06:13;15.35;;;8.00;;
78622;SDS011;67943;54.412;9.502;2023-07-29T06:11:16;9.70;;;6.40;;
78622;SDS011;67943;54.412;9.502;2023-07-29T06:16:17;12.77;;;6.82;;
78622;SDS011;67943;54.412;9.502;2023-07-29T06:21:19;10.73;;;6.30;;
78622;SDS011;67943;54.412;9.502;2023-07-29T06:26:22;9.35;;;6.22;;
78622;SDS011;67943;54.412;9.502;2023-07-29T06:31:23;10.07;;;6.95;;
78622;SDS011;67943;54.412;9.502;2023-07-29T06:36:25;8.32;;;5.55;;
78622;SDS011;67943;54.412;9.502;2023-07-29T06:41:28;12.20;;;6.22;;
78622;SDS011;67943;54.412;9.502;2023-07-29T06:46:30;9.60;;;6.03;;
78622;SDS011;67943;54.412;9.502;2023-07-29T06:51:32;7.93;;;4.78;;
78622;SDS011;67943;54.412;9.502;2023-07-29T06:56:36;7.80;;;5.25;;
78622;SDS011;67943;54.412;9.502;2023-07-29T07:01:38;8.43;;;5.05;;
78622;SDS011;67943;54.412;9.502;2023-07-29T07:06:39;6.05;;;4.60;;
78622;SDS011;67943;54.412;9.502;2023-07-29T07:11:42;6.22;;;4.53;;
78622;SDS011;67943;54.412;9.502;2023-07-29T07:16:43;6.53;;;4.70;;
78622;SDS011;67943;54.412;9.502;2023-07-29T07:21:45;8.13;;;5.50;;
78622;SDS011;67943;54.412;9.502;2023-07-29T07:26:48;8.13;;;6.03;;
78622;SDS011;67943;54.412;9.502;2023-07-29T07:31:50;9.00;;;6.57;;
78622;SDS011;67943;54.412;9.502;2023-07-29T07:36:53;8.90;;;6.13;;
78622;SDS011;67943;54.412;9.502;2023-07-29T07:41:56;11.82;;;7.28;;
78622;SDS011;67943;54.412;9.502;2023-07-29T07:46:57;11.77;;;7.90;;
78622;SDS011;67943;54.412;9.502;2023-07-29T07:51:59;11.30;;;8.55;;
78622;SDS011;67943;54.412;9.502;2023-07-29T07:57:02;10.45;;;7.40;;
78622;SDS011;67943;54.412;9.502;2023-07-29T08:02:03;12.13;;;8.55;;
78622;SDS011;67943;54.412;9.502;2023-07-29T08:07:05;15.15;;;9.07;;
78622;SDS011;67943;54.412;9.502;2023-07-29T08:12:08;12.98;;;9.93;;
78622;SDS011;67943;54.412;9.502;2023-07-29T08:17:09;14.32;;;10.52;;
78622;SDS011;67943;54.412;9.502;2023-07-29T08:22:11;11.05;;;9.13;;
78622;SDS011;67943;54.412;9.502;2023-07-29T08:27:14;13.43;;;8.98;;
78622;SDS011;67943;54.412;9.502;2023-07-29T08:32:15;12.10;;;8.93;;
78622;SDS011;67943;54.412;9.502;2023-07-29T08:37:17;10.10;;;8.73;;
78622;SDS011;67943;54.412;9.502;2023-07-29T08:42:19;11.82;;;9.40;;
78622;SDS011;67943;54.412;9.502;2023-07-29T08:47:24;12.05;;;8.77;;
78622;SDS011;67943;54.412;9.502;2023-07-29T08:52:25;10.85;;;8.18;;
78622;SDS011;67943;54.412;9.502;2023-07-29T08:57:29;9.98;;;7.13;;
78622;SDS011;67943;54.412;9.502;2023-07-29T09:02:31;8.80;;;6.60;;
78622;SDS011;67943;54.412;9.502;2023-07-29T09:07:33;10.75;;;7.18;;
78622;SDS011;67943;54.412;9.502;2023-07-29T09:12:36;7.38;;;6.05;;
78622;SDS011;67943;54.412;9.502;2023-07-29T09:17:38;9.07;;;5.93;;
78622;SDS011;67943;54.412;9.502;2023-07-29T09:22:43;8.20;;;6.38;;
78622;SDS011;67943;54.412;9.502;2023-07-29T09:27:46;8.40;;;6.40;;
78622;SDS011;67943;54.412;9.502;2023-07-29T09:32:52;8.23;;;6.10;;
78622;SDS011;67943;54.412;9.502;2023-07-29T09:37:55;8.20;;;5.70;;
78622;SDS011;67943;54.412;9.502;2023-07-29T09:42:58;6.60;;;4.63;;
78622;SDS011;67943;54.412;9.502;2023-07-29T09:47:59;8.07;;;5.65;;
78622;SDS011;67943;54.412;9.502;2023-07-29T09:53:01;6.85;;;4.88;;
78622;SDS011;67943;54.412;9.502;2023-07-29T09:58:05;4.72;;;3.70;;
78622;SDS011;67943;54.412;9.502;2023-07-29T10:03:08;5.03;;;3.40;;
78622;SDS011;67943;54.412;9.502;2023-07-29T10:08:10;4.97;;;3.15;;
78622;SDS011;67943;54.412;9.502;2023-07-29T10:13:13;6.07;;;3.72;;
78622;SDS011;67943;54.412;9.502;2023-07-29T10:18:16;7.40;;;4.00;;
78622;SDS011;67943;54.412;9.502;2023-07-29T10:23:17;7.40;;;4.18;;
78622;SDS011;67943;54.412;9.502;2023-07-29T10:28:21;5.88;;;3.50;;
78622;SDS011;67943;54.412;9.502;2023-07-29T10:33:27;4.40;;;2.67;;
78622;SDS011;67943;54.412;9.502;2023-07-29T10:38:28;3.67;;;2.33;;
78622;SDS011;67943;54.412;9.502;2023-07-29T10:43:32;5.38;;;2.20;;
78622;SDS011;67943;54.412;9.502;2023-07-29T10:48:39;2.88;;;2.00;;
78622;SDS011;67943;54.412;9.502;2023-07-29T10:53:41;3.83;;;1.70;;
78622;SDS011;67943;54.412;9.502;2023-07-29T10:58:44;3.75;;;1.80;;
78622;SDS011;67943;54.412;9.502;2023-07-29T11:03:53;4.45;;;1.80;;
78622;SDS011;67943;54.412;9.502;2023-07-29T11:09:03;2.85;;;1.90;;
78622;SDS011;67943;54.412;9.502;2023-07-29T11:14:42;2.58;;;1.73;;
78622;SDS011;67943;54.412;9.502;2023-07-29T11:19:43;4.03;;;1.60;;
78622;SDS011;67943;54.412;9.502;2023-07-29T11:24:46;3.80;;;2.13;;
78622;SDS011;67943;54.412;9.502;2023-07-29T11:29:48;3.80;;;1.90;;
78622;SDS011;67943;54.412;9.502;2023-07-29T11:34:50;3.13;;;1.80;;
78622;SDS011;67943;54.412;9.502;2023-07-29T11:39:51;3.05;;;1.80;;
78622;SDS011;67943;54.412;9.502;2023-07-29T11:44:55;4.43;;;2.15;;
78622;SDS011;67943;54.412;9.502;2023-07-29T11:49:58;5.65;;;2.70;;
78622;SDS011;67943;54.412;9.502;2023-07-29T11:55:00;3.47;;;2.42;;
78622;SDS011;67943;54.412;9.502;2023-07-29T12:00:05;3.67;;;2.20;;
78622;SDS011;67943;54.412;9.502;2023-07-29T12:05:10;3.53;;;2.90;;
78622;SDS011;67943;54.412;9.502;2023-07-29T12:10:13;8.60;;;2.75;;
78622;SDS011;67943;54.412;9.502;2023-07-29T12:15:23;4.63;;;2.80;;
78622;SDS011;67943;54.412;9.502;2023-07-29T12:20:25;5.45;;;3.70;;
78622;SDS011;67943;54.412;9.502;2023-07-29T12:25:28;5.47;;;2.20;;
78622;SDS011;67943;54.412;9.502;2023-07-29T12:30:31;3.20;;;1.75;;
78622;SDS011;67943;54.412;9.502;2023-07-29T12:35:36;3.72;;;2.08;;
78622;SDS011;67943;54.412;9.502;2023-07-29T12:40:38;4.68;;;2.20;;
78622;SDS011;67943;54.412;9.502;2023-07-29T12:45:42;3.03;;;1.52;;
78622;SDS011;67943;54.412;9.502;2023-07-29T12:50:44;3.58;;;1.90;;
78622;SDS011;67943;54.412;9.502;2023-07-29T12:55:46;7.50;;;2.47;;
78622;SDS011;67943;54.412;9.502;2023-07-29T13:00:48;3.70;;;2.03;;
78622;SDS011;67943;54.412;9.502;2023-07-29T13:05:50;4.30;;;1.90;;
78622;SDS011;67943;54.412;9.502;2023-07-29T13:10:53;5.07;;;2.15;;
78622;SDS011;67943;54.412;9.502;2023-07-29T13:15:56;4.70;;;2.33;;
78622;SDS011;67943;54.412;9.502;2023-07-29T13:20:58;3.80;;;1.73;;
78622;SDS011;67943;54.412;9.502;2023-07-29T13:26:00;5.32;;;2.03;;
78622;SDS011;67943;54.412;9.502;2023-07-29T13:31:03;5.22;;;2.03;;
78622;SDS011;67943;54.412;9.502;2023-07-29T13:36:05;6.22;;;2.13;;
78622;SDS011;67943;54.412;9.502;2023-07-29T13:41:08;6.85;;;2.20;;
78622;SDS011;67943;54.412;9.502;2023-07-29T13:46:11;4.65;;;1.90;;
78622;SDS011;67943;54.412;9.502;2023-07-29T13:51:12;7.32;;;2.38;;
78622;SDS011;67943;54.412;9.502;2023-07-29T13:56:14;5.03;;;2.50;;
78622;SDS011;67943;54.412;9.502;2023-07-29T14:01:17;5.75;;;1.92;;
78622;SDS011;67943;54.412;9.502;2023-07-29T14:06:19;4.80;;;1.70;;
78622;SDS011;67943;54.412;9.502;2023-07-29T14:11:20;5.05;;;1.63;;
78622;SDS011;67943;54.412;9.502;2023-07-29T14:16:23;6.10;;;2.08;;
78622;SDS011;67943;54.412;9.502;2023-07-29T14:21:24;3.90;;;1.80;;
78622;SDS011;67943;54.412;9.502;2023-07-29T14:26:26;4.78;;;2.20;;
78622;SDS011;67943;54.412;9.502;2023-07-29T14:31:29;6.13;;;1.98;;
78622;SDS011;67943;54.412;9.502;2023-07-29T14:36:30;5.13;;;1.75;;
78622;SDS011;67943;54.412;9.502;2023-07-29T14:41:32;6.25;;;1.90;;
78622;SDS011;67943;54.412;9.502;2023-07-29T14:46:34;5.43;;;1.90;;
78622;SDS011;67943;54.412;9.502;2023-07-29T14:51:36;2.75;;;1.42;;
78622;SDS011;67943;54.412;9.502;2023-07-29T14:56:37;4.05;;;1.45;;
78622;SDS011;67943;54.412;9.502;2023-07-29T15:01:40;4.05;;;1.75;;
78622;SDS011;67943;54.412;9.502;2023-07-29T15:06:42;2.55;;;1.10;;
78622;SDS011;67943;54.412;9.502;2023-07-29T15:11:43;4.45;;;1.73;;
78622;SDS011;67943;54.412;9.502;2023-07-29T15:16:46;3.63;;;1.30;;
78622;SDS011;67943;54.412;9.502;2023-07-29T15:21:47;3.30;;;1.15;;
78622;SDS011;67943;54.412;9.502;2023-07-29T15:26:49;3.97;;;1.30;;
78622;SDS011;67943;54.412;9.502;2023-07-29T15:31:52;2.85;;;1.20;;
78622;SDS011;67943;54.412;9.502;2023-07-29T15:36:53;4.70;;;1.50;;
78622;SDS011;67943;54.412;9.502;2023-07-29T15:41:55;4.57;;;1.58;;
78622;SDS011;67943;54.412;9.502;2023-07-29T15:46:58;4.07;;;1.70;;
78622;SDS011;67943;54.412;9.502;2023-07-29T15:52:00;3.83;;;1.15;;
78622;SDS011;67943;54.412;9.502;2023-07-29T15:57:01;4.63;;;1.65;;
78622;SDS011;67943;54.412;9.502;2023-07-29T16:02:04;7.32;;;2.25;;
78622;SDS011;67943;54.412;9.502;2023-07-29T16:07:08;5.95;;;1.55;;
78622;SDS011;67943;54.412;9.502;2023-07-29T16:12:10;7.57;;;2.55;;
78622;SDS011;67943;54.412;9.502;2023-07-29T16:17:12;3.65;;;1.38;;
78622;SDS011;67943;54.412;9.502;2023-07-29T16:22:14;5.47;;;1.88;;
78622;SDS011;67943;54.412;9.502;2023-07-29T16:27:15;4.10;;;1.55;;
78622;SDS011;67943;54.412;9.502;2023-07-29T16:32:18;4.72;;;1.80;;
78622;SDS011;67943;54.412;9.502;2023-07-29T16:37:20;5.28;;;1.80;;
78622;SDS011;67943;54.412;9.502;2023-07-29T16:42:21;5.45;;;2.00;;
78622;SDS011;67943;54.412;9.502;2023-07-29T16:47:24;3.72;;;1.50;;
78622;SDS011;67943;54.412;9.502;2023-07-29T16:52:26;8.27;;;2.22;;
78622;SDS011;67943;54.412;9.502;2023-07-29T16:57:28;5.63;;;1.73;;
78622;SDS011;67943;54.412;9.502;2023-07-29T17:02:30;4.72;;;1.70;;
78622;SDS011;67943;54.412;9.502;2023-07-29T17:07:32;4.03;;;1.50;;
78622;SDS011;67943;54.412;9.502;2023-07-29T17:12:33;7.07;;;1.90;;
78622;SDS011;67943;54.412;9.502;2023-07-29T17:17:36;6.07;;;1.90;;
78622;SDS011;67943;54.412;9.502;2023-07-29T17:22:38;5.13;;;1.80;;
78622;SDS011;67943;54.412;9.502;2023-07-29T17:27:40;4.35;;;1.55;;
78622;SDS011;67943;54.412;9.502;2023-07-29T17:32:43;3.92;;;1.55;;
78622;SDS011;67943;54.412;9.502;2023-07-29T17:37:44;5.47;;;1.80;;
78622;SDS011;67943;54.412;9.502;2023-07-29T17:42:46;4.85;;;1.90;;
78622;SDS011;67943;54.412;9.502;2023-07-29T17:47:48;4.47;;;1.80;;
78622;SDS011;67943;54.412;9.502;2023-07-29T17:52:50;5.68;;;2.30;;
78622;SDS011;67943;54.412;9.502;2023-07-29T17:57:51;7.60;;;2.20;;
78622;SDS011;67943;54.412;9.502;2023-07-29T18:02:54;6.65;;;2.10;;
78622;SDS011;67943;54.412;9.502;2023-07-29T18:07:56;5.15;;;2.30;;
78622;SDS011;67943;54.412;9.502;2023-07-29T18:12:57;6.07;;;2.20;;
78622;SDS011;67943;54.412;9.502;2023-07-29T18:18:02;6.07;;;2.47;;
78622;SDS011;67943;54.412;9.502;2023-07-29T18:23:04;5.28;;;2.25;;
78622;SDS011;67943;54.412;9.502;2023-07-29T18:28:05;5.70;;;2.63;;
78622;SDS011;67943;54.412;9.502;2023-07-29T18:33:09;6.07;;;2.20;;
78622;SDS011;67943;54.412;9.502;2023-07-29T18:38:11;8.15;;;2.92;;
78622;SDS011;67943;54.412;9.502;2023-07-29T18:43:12;8.57;;;2.90;;
78622;SDS011;67943;54.412;9.502;2023-07-29T18:48:15;6.57;;;2.28;;
78622;SDS011;67943;54.412;9.502;2023-07-29T18:53:17;8.00;;;2.75;;
78622;SDS011;67943;54.412;9.502;2023-07-29T18:58:18;9.82;;;3.25;;
78622;SDS011;67943;54.412;9.502;2023-07-29T19:03:21;7.25;;;2.80;;
78622;SDS011;67943;54.412;9.502;2023-07-29T19:08:23;7.50;;;2.60;;
78622;SDS011;67943;54.412;9.502;2023-07-29T19:13:26;7.95;;;2.70;;
78622;SDS011;67943;54.412;9.502;2023-07-29T19:18:28;9.57;;;2.65;;
78622;SDS011;67943;54.412;9.502;2023-07-29T19:23:30;9.07;;;2.90;;
78622;SDS011;67943;54.412;9.502;2023-07-29T19:28:31;7.70;;;2.60;;
78622;SDS011;67943;54.412;9.502;2023-07-29T19:33:34;7.28;;;2.97;;
78622;SDS011;67943;54.412;9.502;2023-07-29T19:38:40;9.60;;;3.17;;
78622;SDS011;67943;54.412;9.502;2023-07-29T19:43:42;10.88;;;3.80;;
78622;SDS011;67943;54.412;9.502;2023-07-29T19:48:48;12.65;;;3.28;;
78622;SDS011;67943;54.412;9.502;2023-07-29T19:53:51;7.07;;;2.90;;
78622;SDS011;67943;54.412;9.502;2023-07-29T19:58:53;9.80;;;3.88;;
78622;SDS011;67943;54.412;9.502;2023-07-29T20:03:56;10.00;;;3.40;;
78622;SDS011;67943;54.412;9.502;2023-07-29T20:08:57;10.05;;;3.88;;
78622;SDS011;67943;54.412;9.502;2023-07-29T20:13:59;8.75;;;3.95;;
78622;SDS011;67943;54.412;9.502;2023-07-29T20:19:01;10.95;;;3.95;;
78622;SDS011;67943;54.412;9.502;2023-07-29T20:24:03;8.73;;;3.80;;
78622;SDS011;67943;54.412;9.502;2023-07-29T20:29:05;11.50;;;3.83;;
78622;SDS011;67943;54.412;9.502;2023-07-29T20:34:07;8.77;;;3.53;;
78622;SDS011;67943;54.412;9.502;2023-07-29T20:39:09;11.20;;;3.83;;
78622;SDS011;67943;54.412;9.502;2023-07-29T20:44:10;10.05;;;4.10;;
78622;SDS011;67943;54.412;9.502;2023-07-29T20:49:13;9.63;;;4.05;;
78622;SDS011;67943;54.412;9.502;2023-07-29T20:54:15;13.18;;;4.35;;
78622;SDS011;67943;54.412;9.502;2023-07-29T20:59:16;13.15;;;4.30;;
78622;SDS011;67943;54.412;9.502;2023-07-29T21:04:19;9.75;;;3.83;;
78622;SDS011;67943;54.412;9.502;2023-07-29T21:09:21;9.45;;;3.88;;
78622;SDS011;67943;54.412;9.502;2023-07-29T21:14:22;14.63;;;4.38;;
78622;SDS011;67943;54.412;9.502;2023-07-29T21:19:25;12.18;;;4.72;;
78622;SDS011;67943;54.412;9.502;2023-07-29T21:24:26;7.93;;;4.05;;
78622;SDS011;67943;54.412;9.502;2023-07-29T21:29:28;12.80;;;3.85;;
78622;SDS011;67943;54.412;9.502;2023-07-29T21:34:36;9.13;;;3.92;;
78622;SDS011;67943;54.412;9.502;2023-07-29T21:39:37;10.25;;;4.68;;
78622;SDS011;67943;54.412;9.502;2023-07-29T21:44:39;7.13;;;4.15;;
78622;SDS011;67943;54.412;9.502;2023-07-29T21:49:42;11.80;;;4.18;;
78622;SDS011;67943;54.412;9.502;2023-07-29T21:54:43;11.40;;;3.90;;
78622;SDS011;67943;54.412;9.502;2023-07-29T21:59:45;9.48;;;4.32;;
78622;SDS011;67943;54.412;9.502;2023-07-29T22:04:48;8.68;;;3.88;;
78622;SDS011;67943;54.412;9.502;2023-07-29T22:09:49;10.18;;;4.10;;
78622;SDS011;67943;54.412;9.502;2023-07-29T22:14:51;10.98;;;3.85;;
78622;SDS011;67943;54.412;9.502;2023-07-29T22:19:54;11.93;;;3.75;;
78622;SDS011;67943;54.412;9.502;2023-07-29T22:24:55;8.10;;;3.60;;
78622;SDS011;67943;54.412;9.502;2023-07-29T22:29:57;9.77;;;3.78;;
78622;SDS011;67943;54.412;9.502;2023-07-29T22:34:59;10.50;;;3.92;;
78622;SDS011;67943;54.412;9.502;2023-07-29T22:40:01;9.98;;;3.90;;
78622;SDS011;67943;54.412;9.502;2023-07-29T22:45:03;10.43;;;3.47;;
78622;SDS011;67943;54.412;9.502;2023-07-29T22:50:06;10.27;;;3.95;;
78622;SDS011;67943;54.412;9.502;2023-07-29T22:55:08;15.18;;;5.72;;
78622;SDS011;67943;54.412;9.502;2023-07-29T23:00:10;9.45;;;4.60;;
78622;SDS011;67943;54.412;9.502;2023-07-29T23:05:14;12.30;;;4.80;;
78622;SDS011;67943;54.412;9.502;2023-07-29T23:10:15;11.27;;;4.85;;
78622;SDS011;67943;54.412;9.502;2023-07-29T23:15:17;10.45;;;5.22;;
78622;SDS011;67943;54.412;9.502;2023-07-29T23:20:20;12.13;;;5.70;;
78622;SDS011;67943;54.412;9.502;2023-07-29T23:25:21;9.82;;;5.82;;
78622;SDS011;67943;54.412;9.502;2023-07-29T23:30:23;14.65;;;6.13;;
78622;SDS011;67943;54.412;9.502;2023-07-29T23:35:26;11.57;;;5.85;;
78622;SDS011;67943;54.412;9.502;2023-07-29T23:40:27;12.88;;;6.45;;
78622;SDS011;67943;54.412;9.502;2023-07-29T23:45:28;10.93;;;5.68;;
78622;SDS011;67943;54.412;9.502;2023-07-29T23:50:31;11.15;;;5.68;;
78622;SDS011;67943;54.412;9.502;2023-07-29T23:55:33;13.93;;;6.00;;
